createdAt,value
2019-04-25T00:00:09.695Z,11.05
2019-04-25T00:01:11.151Z,11.12
2019-04-25T00:02:11.439Z,11.05
2019-04-25T00:03:09.709Z,11.18
2019-04-25T00:04:11.471Z,11.33
2019-04-25T00:05:11.214Z,11.33
2019-04-25T00:06:09.921Z,11.4
2019-04-25T00:07:09.978Z,11.41
2019-04-25T00:08:11.456Z,11.37
2019-04-25T00:09:11.842Z,11.35
2019-04-25T00:10:09.886Z,11.36
2019-04-25T00:11:11.519Z,11.26
2019-04-25T00:12:10.261Z,11.3
2019-04-25T00:13:11.735Z,11.18
2019-04-25T00:14:11.300Z,11.19
2019-04-25T00:15:11.070Z,11.14
2019-04-25T00:16:09.641Z,11.15
2019-04-25T00:17:11.141Z,11.12
2019-04-25T00:18:09.895Z,11.1
2019-04-25T00:19:09.628Z,11.07
2019-04-25T00:20:11.357Z,11.11
2019-04-25T00:21:09.899Z,11.08
2019-04-25T00:22:09.935Z,11.17
2019-04-25T00:23:09.843Z,11.22
2019-04-25T00:24:09.575Z,11.19
2019-04-25T00:25:21.856Z,11.23
2019-04-25T00:26:11.299Z,11.32
2019-04-25T00:27:11.717Z,11.26
2019-04-25T00:28:09.822Z,11.29
2019-04-25T00:29:09.803Z,11.29
2019-04-25T00:30:11.181Z,11.3
2019-04-25T00:31:09.559Z,11.23
2019-04-25T00:32:11.604Z,11.19
2019-04-25T00:33:09.780Z,11.19
2019-04-25T00:34:10.007Z,11.17
2019-04-25T00:35:11.640Z,11.14
2019-04-25T00:36:09.759Z,11.14
2019-04-25T00:37:10.079Z,11.05
2019-04-25T00:38:09.751Z,11
2019-04-25T00:39:09.750Z,11.04
2019-04-25T00:40:09.771Z,11.07
2019-04-25T00:41:11.470Z,11.05
2019-04-25T00:42:09.799Z,11.05
2019-04-25T00:43:11.071Z,11.07
2019-04-25T00:44:09.517Z,11.27
2019-04-25T00:45:09.706Z,11.35
2019-04-25T00:46:11.221Z,11.32
2019-04-25T00:47:09.750Z,11.36
2019-04-25T00:48:09.460Z,11.43
2019-04-25T00:49:09.679Z,11.4
2019-04-25T00:50:09.919Z,11.44
2019-04-25T00:51:09.682Z,11.4
2019-04-25T00:52:11.189Z,11.48
2019-04-25T00:53:11.214Z,11.52
2019-04-25T00:54:09.435Z,11.62
2019-04-25T00:55:09.675Z,11.65
2019-04-25T00:56:09.403Z,11.57
2019-04-25T00:57:09.700Z,11.54
2019-04-25T00:58:09.643Z,11.63
2019-04-25T00:59:09.635Z,11.68
2019-04-25T01:00:09.644Z,11.7
2019-04-25T01:01:09.890Z,11.73
2019-04-25T01:02:13.908Z,11.68
2019-04-25T01:03:09.629Z,11.68
2019-04-25T01:04:09.635Z,11.6
2019-04-25T01:05:11.517Z,11.6
2019-04-25T01:06:09.610Z,11.54
2019-04-25T01:07:09.765Z,11.54
2019-04-25T01:08:09.866Z,11.52
2019-04-25T01:09:09.591Z,11.47
2019-04-25T01:10:09.833Z,11.47
2019-04-25T01:11:09.351Z,11.4
2019-04-25T01:12:09.689Z,11.43
2019-04-25T01:13:10.980Z,11.4
2019-04-25T01:14:09.582Z,11.44
2019-04-25T01:15:09.580Z,11.5
2019-04-25T01:16:09.838Z,11.41
2019-04-25T01:17:11.455Z,11.37
2019-04-25T01:18:09.351Z,11.45
2019-04-25T01:19:09.799Z,11.32
2019-04-25T01:20:09.545Z,11.35
2019-04-25T01:21:09.545Z,11.3
2019-04-25T01:22:09.802Z,11.26
2019-04-25T01:23:09.382Z,11.26
2019-04-25T01:24:09.274Z,11.19
2019-04-25T01:25:09.536Z,11.26
2019-04-25T01:26:09.516Z,11.17
2019-04-25T01:27:10.250Z,11.1
2019-04-25T01:28:09.745Z,11.12
2019-04-25T01:29:09.496Z,11.17
2019-04-25T01:30:10.949Z,11.3
2019-04-25T01:31:09.491Z,11.32
2019-04-25T01:32:09.599Z,11.41
2019-04-25T01:33:09.386Z,11.4
2019-04-25T01:34:09.481Z,11.41
2019-04-25T01:35:09.740Z,11.41
2019-04-25T01:36:09.467Z,11.29
2019-04-25T01:37:09.862Z,11.33
2019-04-25T01:38:09.455Z,11.29
2019-04-25T01:39:09.722Z,11.36
2019-04-25T01:40:09.695Z,11.37
2019-04-25T01:41:09.692Z,11.33
2019-04-25T01:42:10.170Z,11.33
2019-04-25T01:43:09.443Z,11.25
2019-04-25T01:44:09.691Z,11.23
2019-04-25T01:45:09.183Z,11.25
2019-04-25T01:46:09.422Z,11.32
2019-04-25T01:47:09.422Z,11.22
2019-04-25T01:48:09.418Z,11.36
2019-04-25T01:49:09.647Z,11.32
2019-04-25T01:50:09.679Z,11.32
2019-04-25T01:51:09.666Z,11.36
2019-04-25T01:52:09.532Z,11.36
2019-04-25T01:53:09.398Z,11.29
2019-04-25T01:54:09.144Z,11.37
2019-04-25T01:55:10.142Z,11.3
2019-04-25T01:56:13.508Z,11.19
2019-04-25T01:57:09.363Z,11.15
2019-04-25T01:58:09.365Z,11.1
2019-04-25T01:59:09.370Z,11.08
2019-04-25T02:00:09.610Z,11.29
2019-04-25T02:01:09.348Z,11.19
2019-04-25T02:02:11.359Z,11.23
2019-04-25T02:03:09.374Z,11.29
2019-04-25T02:04:09.592Z,11.27
2019-04-25T02:05:09.961Z,11.17
2019-04-25T02:06:09.879Z,11.14
2019-04-25T02:07:09.065Z,11.11
2019-04-25T02:08:11.746Z,11.08
2019-04-25T02:09:10.081Z,11.15
2019-04-25T02:10:09.309Z,11.05
2019-04-25T02:11:09.069Z,11.1
2019-04-25T02:12:09.685Z,11.07
2019-04-25T02:13:09.296Z,11.08
2019-04-25T02:14:10.013Z,11.1
2019-04-25T02:15:10.542Z,11.15
2019-04-25T02:16:09.883Z,11.26
2019-04-25T02:17:09.273Z,11.22
2019-04-25T02:18:09.275Z,11.32
2019-04-25T02:19:09.252Z,11.35
2019-04-25T02:20:09.006Z,11.3
2019-04-25T02:21:09.497Z,11.45
2019-04-25T02:22:09.499Z,11.4
2019-04-25T02:23:09.250Z,11.44
2019-04-25T02:24:10.234Z,11.45
2019-04-25T02:25:09.500Z,11.44
2019-04-25T02:26:21.081Z,11.41
2019-04-25T02:27:09.320Z,11.41
2019-04-25T02:28:10.537Z,11.43
2019-04-25T02:29:09.062Z,11.35
2019-04-25T02:30:11.817Z,11.35
2019-04-25T02:31:15.310Z,11.32
2019-04-25T02:32:14.496Z,11.32
2019-04-25T02:33:14.290Z,11.33
2019-04-25T02:34:15.261Z,11.23
2019-04-25T02:35:14.691Z,11.3
2019-04-25T02:36:14.999Z,11.32
2019-04-25T02:37:17.078Z,11.32
2019-04-25T02:38:14.633Z,11.25
2019-04-25T02:39:14.834Z,11.22
2019-04-25T02:40:14.109Z,11.25
2019-04-25T02:41:14.684Z,11.14
2019-04-25T02:42:14.277Z,11.17
2019-04-25T02:43:14.200Z,11.02
2019-04-25T02:44:16.733Z,11
2019-04-25T02:45:16.072Z,10.94
2019-04-25T02:46:14.953Z,10.9
2019-04-25T02:47:14.776Z,10.92
2019-04-25T02:48:10.548Z,10.84
2019-04-25T02:49:38.710Z,10.86
2019-04-25T02:50:15.043Z,10.78
2019-04-25T02:51:14.434Z,10.86
2019-04-25T02:52:18.314Z,10.86
2019-04-25T02:53:10.692Z,10.78
2019-04-25T02:54:13.966Z,10.74
2019-04-25T02:55:36.763Z,10.69
2019-04-25T02:56:38.768Z,10.68
2019-04-25T02:57:14.377Z,10.76
2019-04-25T02:58:14.069Z,10.69
2019-04-25T02:59:14.840Z,10.71
2019-04-25T03:00:14.909Z,10.72
2019-04-25T03:01:26.332Z,10.72
2019-04-25T03:02:11.866Z,10.74
2019-04-25T03:03:14.676Z,10.57
2019-04-25T03:04:14.478Z,10.59
2019-04-25T03:05:16.352Z,10.59
2019-04-25T03:06:14.947Z,10.54
2019-04-25T03:07:19.589Z,10.54
2019-04-25T03:08:14.249Z,10.6
2019-04-25T03:09:12.272Z,10.51
2019-04-25T03:10:14.792Z,10.59
2019-04-25T03:11:14.567Z,10.59
2019-04-25T03:12:26.323Z,10.56
2019-04-25T03:13:17.089Z,10.49
2019-04-25T03:14:14.463Z,10.51
2019-04-25T03:15:14.423Z,10.48
2019-04-25T03:16:14.160Z,10.57
2019-04-25T03:17:14.214Z,10.44
2019-04-25T03:18:17.041Z,10.54
2019-04-25T03:19:13.979Z,10.56
2019-04-25T03:20:16.840Z,10.53
2019-04-25T03:21:18.796Z,10.57
2019-04-25T03:22:17.070Z,10.61
2019-04-25T03:23:14.417Z,10.53
2019-04-25T03:24:18.386Z,10.54
2019-04-25T03:25:18.851Z,10.56
2019-04-25T03:26:11.241Z,10.54
2019-04-25T03:27:11.552Z,10.48
2019-04-25T03:28:11.620Z,10.56
2019-04-25T03:29:13.538Z,10.54
2019-04-25T03:30:19.354Z,10.54
2019-04-25T03:31:27.061Z,10.61
2019-04-25T03:32:21.513Z,10.6
2019-04-25T03:33:21.465Z,10.61
2019-04-25T03:34:24.981Z,10.68
2019-04-25T03:35:11.298Z,10.67
2019-04-25T03:36:11.536Z,10.74
2019-04-25T03:37:13.604Z,10.71
2019-04-25T03:38:10.934Z,10.79
2019-04-25T03:39:11.113Z,10.78
2019-04-25T03:40:13.753Z,10.87
2019-04-25T03:41:11.130Z,10.9
2019-04-25T03:42:10.592Z,10.9
2019-04-25T03:43:11.049Z,10.96
2019-04-25T03:44:10.417Z,11.05
2019-04-25T03:45:11.642Z,10.99
2019-04-25T03:46:10.721Z,10.94
2019-04-25T03:47:13.508Z,10.89
2019-04-25T03:48:11.482Z,10.89
2019-04-25T03:49:10.782Z,10.76
2019-04-25T03:50:13.795Z,10.75
2019-04-25T03:51:10.495Z,10.69
2019-04-25T03:52:10.374Z,10.71
2019-04-25T03:53:10.340Z,10.63
2019-04-25T03:54:14.226Z,10.61
2019-04-25T03:55:10.732Z,10.6
2019-04-25T03:56:11.081Z,10.48
2019-04-25T03:57:11.117Z,10.56
2019-04-25T03:58:14.596Z,10.37
2019-04-25T03:59:10.867Z,10.35
2019-04-25T04:00:11.287Z,10.25
2019-04-25T04:01:13.175Z,10.22
2019-04-25T04:02:11.269Z,10.17
2019-04-25T04:03:11.527Z,10.09
2019-04-25T04:04:11.493Z,10.17
2019-04-25T04:05:13.548Z,10.15
2019-04-25T04:06:14.131Z,10.2
2019-04-25T04:07:15.842Z,10.16
2019-04-25T04:08:10.098Z,10.19
2019-04-25T04:09:13.862Z,10.16
2019-04-25T04:10:10.502Z,10.07
2019-04-25T04:11:14.086Z,10.07
2019-04-25T04:12:10.372Z,10.12
2019-04-25T04:13:10.808Z,10.04
2019-04-25T04:14:10.693Z,10.09
2019-04-25T04:15:10.742Z,10.1
2019-04-25T04:16:10.871Z,10.02
2019-04-25T04:17:11.076Z,10.07
2019-04-25T04:18:11.031Z,9.97
2019-04-25T04:19:11.291Z,9.91
2019-04-25T04:20:11.257Z,9.95
2019-04-25T04:21:11.172Z,10.1
2019-04-25T04:22:11.155Z,10.15
2019-04-25T04:23:10.053Z,10.25
2019-04-25T04:24:09.909Z,10.3
2019-04-25T04:25:08.410Z,10.34
2019-04-25T04:26:09.762Z,10.51
2019-04-25T04:27:14.418Z,10.6
2019-04-25T04:28:08.635Z,10.57
2019-04-25T04:29:10.227Z,10.53
2019-04-25T04:30:08.768Z,10.57
2019-04-25T04:31:09.035Z,10.59
2019-04-25T04:32:09.375Z,10.57
2019-04-25T04:33:09.126Z,10.44
2019-04-25T04:34:08.841Z,10.49
2019-04-25T04:35:09.425Z,10.38
2019-04-25T04:36:09.532Z,10.42
2019-04-25T04:37:09.923Z,10.49
2019-04-25T04:38:09.566Z,10.41
2019-04-25T04:39:09.027Z,10.42
2019-04-25T04:40:10.411Z,10.46
2019-04-25T04:41:10.415Z,10.46
2019-04-25T04:42:09.570Z,10.56
2019-04-25T04:43:10.424Z,10.59
2019-04-25T04:44:09.946Z,10.81
2019-04-25T04:45:08.771Z,11.04
2019-04-25T04:46:08.825Z,11.29
2019-04-25T04:47:08.697Z,11.4
2019-04-25T04:48:08.742Z,11.78
2019-04-25T04:49:08.805Z,12.12
2019-04-25T04:50:09.004Z,12.39
2019-04-25T04:51:09.029Z,12.65
2019-04-25T04:52:11.483Z,12.82
2019-04-25T04:53:09.258Z,13.3
2019-04-25T04:54:09.457Z,13.53
2019-04-25T04:55:17.183Z,13.9
2019-04-25T04:56:09.657Z,14.23
2019-04-25T04:57:36.072Z,14.58
2019-04-25T04:58:09.103Z,14.62
2019-04-25T04:59:08.478Z,14.78
2019-04-25T05:00:08.250Z,15
2019-04-25T05:01:08.519Z,14.99
2019-04-25T05:02:08.757Z,15.25
2019-04-25T05:03:09.326Z,15.44
2019-04-25T05:04:08.803Z,15.49
2019-04-25T05:05:08.476Z,15.65
2019-04-25T05:06:08.481Z,15.84
2019-04-25T05:07:08.456Z,16.05
2019-04-25T05:08:08.454Z,15.98
2019-04-25T05:09:08.612Z,16.28
2019-04-25T05:10:08.704Z,16.47
2019-04-25T05:11:08.864Z,16.64
2019-04-25T05:12:08.919Z,16.46
2019-04-25T05:13:08.898Z,16.29
2019-04-25T05:14:08.842Z,16.09
2019-04-25T05:15:08.226Z,15.62
2019-04-25T05:16:08.481Z,15.42
2019-04-25T05:17:08.769Z,15.36
2019-04-25T05:18:08.888Z,15.24
2019-04-25T05:19:08.756Z,15.27
2019-04-25T05:20:08.708Z,15.43
2019-04-25T05:21:09.046Z,15.35
2019-04-25T05:22:08.214Z,15.43
2019-04-25T05:23:11.969Z,15.4
2019-04-25T05:24:08.989Z,15.43
2019-04-25T05:25:08.769Z,15.43
2019-04-25T05:26:09.227Z,15.31
2019-04-25T05:27:08.463Z,15.35
2019-04-25T05:28:10.164Z,15.44
2019-04-25T05:29:08.721Z,15.28
2019-04-25T05:30:08.583Z,15.06
2019-04-25T05:31:08.474Z,14.65
2019-04-25T05:32:09.076Z,14.37
2019-04-25T05:33:08.598Z,14.17
2019-04-25T05:34:08.809Z,14.07
2019-04-25T05:35:08.226Z,14.05
2019-04-25T05:36:10.509Z,14.33
2019-04-25T05:37:08.473Z,14.41
2019-04-25T05:38:08.466Z,14.44
2019-04-25T05:39:08.623Z,14.48
2019-04-25T05:40:10.430Z,14.88
2019-04-25T05:41:08.885Z,15.37
2019-04-25T05:42:10.627Z,15.73
2019-04-25T05:43:08.521Z,16.28
2019-04-25T05:44:09.049Z,16.71
2019-04-25T05:45:09.034Z,17.15
2019-04-25T05:46:08.714Z,17.36
2019-04-25T05:47:08.996Z,17.38
2019-04-25T05:48:10.646Z,17.09
2019-04-25T05:49:10.005Z,17.09
2019-04-25T05:50:08.460Z,17.09
2019-04-25T05:51:08.803Z,16.79
2019-04-25T05:52:08.894Z,16.36
2019-04-25T05:53:08.644Z,15.94
2019-04-25T05:54:09.831Z,15.61
2019-04-25T05:55:08.792Z,15.22
2019-04-25T05:56:08.987Z,15.09
2019-04-25T05:57:08.484Z,14.82
2019-04-25T05:58:08.595Z,14.59
2019-04-25T05:59:10.353Z,14.41
2019-04-25T06:00:08.744Z,14.4
2019-04-25T06:01:08.740Z,14.22
2019-04-25T06:02:08.764Z,14.15
2019-04-25T06:03:08.485Z,14.15
2019-04-25T06:04:09.781Z,14.12
2019-04-25T06:05:08.480Z,13.97
2019-04-25T06:06:08.490Z,13.95
2019-04-25T06:07:10.523Z,13.95
2019-04-25T06:08:08.987Z,13.87
2019-04-25T06:09:08.807Z,13.85
2019-04-25T06:10:08.909Z,13.83
2019-04-25T06:11:08.650Z,13.86
2019-04-25T06:12:09.558Z,13.97
2019-04-25T06:13:08.721Z,13.95
2019-04-25T06:14:08.511Z,14.35
2019-04-25T06:15:08.221Z,14.84
2019-04-25T06:16:08.480Z,15.62
2019-04-25T06:17:08.463Z,16.64
2019-04-25T06:18:08.740Z,17.46
2019-04-25T06:19:24.182Z,18.25
2019-04-25T06:20:10.460Z,18.74
2019-04-25T06:21:08.463Z,19.31
2019-04-25T06:22:08.461Z,19.79
2019-04-25T06:23:08.720Z,20.4
2019-04-25T06:24:09.118Z,20.69
2019-04-25T06:25:18.090Z,21.2
2019-04-25T06:26:39.682Z,21.48
2019-04-25T06:27:08.227Z,21.51
2019-04-25T06:28:08.465Z,21.62
2019-04-25T06:29:08.710Z,21.89
2019-04-25T06:30:09.293Z,22.13
2019-04-25T06:31:13.744Z,22.45
2019-04-25T06:32:14.200Z,22.62
2019-04-25T06:33:08.496Z,22.96
2019-04-25T06:34:09.384Z,23.46
2019-04-25T06:35:09.594Z,23.74
2019-04-25T06:36:08.994Z,23.86
2019-04-25T06:37:10.812Z,24.01
2019-04-25T06:38:08.751Z,23.96
2019-04-25T06:39:08.684Z,23.71
2019-04-25T06:40:09.950Z,23.78
2019-04-25T06:41:08.761Z,23.62
2019-04-25T06:42:08.598Z,23.81
2019-04-25T06:43:08.779Z,24.1
2019-04-25T06:44:08.873Z,24.48
2019-04-25T06:45:08.385Z,24.57
2019-04-25T06:46:08.540Z,24.81
2019-04-25T06:47:08.301Z,25.11
2019-04-25T06:48:08.328Z,25.43
2019-04-25T06:49:08.322Z,25.62
2019-04-25T06:50:08.911Z,25.69
2019-04-25T06:51:08.329Z,25.7
2019-04-25T06:52:08.772Z,25.66
2019-04-25T06:53:10.034Z,25.48
2019-04-25T06:54:08.328Z,25.48
2019-04-25T06:55:08.958Z,25.31
2019-04-25T06:56:08.906Z,25.46
2019-04-25T06:57:08.837Z,25.66
2019-04-25T06:58:16.875Z,26.05
2019-04-25T06:59:08.868Z,25.95
2019-04-25T07:00:09.084Z,25.68
2019-04-25T07:01:08.625Z,25.4
2019-04-25T07:02:08.837Z,25.17
2019-04-25T07:03:09.131Z,25.07
2019-04-25T07:04:08.667Z,25.1
2019-04-25T07:05:08.407Z,25.06
2019-04-25T07:06:08.910Z,25.11
2019-04-25T07:07:17.237Z,25.31
2019-04-25T07:08:08.664Z,25.4
2019-04-25T07:09:08.925Z,25.47
2019-04-25T07:10:08.779Z,25.5
2019-04-25T07:11:08.684Z,25.58
2019-04-25T07:12:08.707Z,25.58
2019-04-25T07:13:08.885Z,25.5
2019-04-25T07:14:09.021Z,25.6
2019-04-25T07:15:08.766Z,25.41
2019-04-25T07:16:09.276Z,25.46
2019-04-25T07:17:08.978Z,25.47
2019-04-25T07:18:08.491Z,25.47
2019-04-25T07:19:09.405Z,25.58
2019-04-25T07:20:08.556Z,25.66
2019-04-25T07:21:09.047Z,25.6
2019-04-25T07:22:08.749Z,25.55
2019-04-25T07:23:08.521Z,25.53
2019-04-25T07:24:09.024Z,25.43
2019-04-25T07:25:08.824Z,25.47
2019-04-25T07:26:08.777Z,25.68
2019-04-25T07:27:09.068Z,25.73
2019-04-25T07:28:08.802Z,25.43
2019-04-25T07:29:10.159Z,24.73
2019-04-25T07:30:08.602Z,23.92
2019-04-25T07:31:08.812Z,23.18
2019-04-25T07:32:10.537Z,22.59
2019-04-25T07:33:08.831Z,22.11
2019-04-25T07:34:08.825Z,21.77
2019-04-25T07:35:08.898Z,21.61
2019-04-25T07:36:09.146Z,21.57
2019-04-25T07:37:08.862Z,21.72
2019-04-25T07:38:09.095Z,21.82
2019-04-25T07:39:15.942Z,21.93
2019-04-25T07:40:09.253Z,21.99
2019-04-25T07:41:09.116Z,22.26
2019-04-25T07:42:08.859Z,22.78
2019-04-25T07:43:09.528Z,23.39
2019-04-25T07:44:08.866Z,24.08
2019-04-25T07:45:09.399Z,24.54
2019-04-25T07:46:09.120Z,24.98
2019-04-25T07:47:08.878Z,25.55
2019-04-25T07:48:08.973Z,25.93
2019-04-25T07:49:09.165Z,26.4
2019-04-25T07:50:09.253Z,26.85
2019-04-25T07:51:08.921Z,27.18
2019-04-25T07:52:11.464Z,27.18
2019-04-25T07:53:10.513Z,27.14
2019-04-25T07:54:09.362Z,27.05
2019-04-25T07:55:09.023Z,26.97
2019-04-25T07:56:08.674Z,26.93
2019-04-25T07:57:08.691Z,26.93
2019-04-25T07:58:08.953Z,27.02
2019-04-25T07:59:08.692Z,27.36
2019-04-25T08:00:09.656Z,27.47
2019-04-25T08:01:08.963Z,27.65
2019-04-25T08:02:08.968Z,27.82
2019-04-25T08:03:08.994Z,27.96
2019-04-25T08:04:09.223Z,27.95
2019-04-25T08:05:09.237Z,27.73
2019-04-25T08:06:09.808Z,27.59
2019-04-25T08:07:09.000Z,27.27
2019-04-25T08:08:08.754Z,27.29
2019-04-25T08:09:09.264Z,27.25
2019-04-25T08:10:09.263Z,27.39
2019-04-25T08:11:09.085Z,27.49
2019-04-25T08:12:09.026Z,27.42
2019-04-25T08:13:09.891Z,27.26
2019-04-25T08:14:08.793Z,27.36
2019-04-25T08:15:09.282Z,27.17
2019-04-25T08:16:09.066Z,27.27
2019-04-25T08:17:09.062Z,26.78
2019-04-25T08:18:08.812Z,26.16
2019-04-25T08:19:09.324Z,26.1
2019-04-25T08:20:09.321Z,26.06
2019-04-25T08:21:09.078Z,26.16
2019-04-25T08:22:09.332Z,26.45
2019-04-25T08:23:08.857Z,26.7
2019-04-25T08:24:09.091Z,26.96
2019-04-25T08:25:09.116Z,26.93
2019-04-25T08:26:09.122Z,27
2019-04-25T08:27:09.356Z,26.89
2019-04-25T08:28:08.951Z,26.44
2019-04-25T08:29:09.394Z,26.44
2019-04-25T08:30:09.135Z,26.47
2019-04-25T08:31:09.382Z,26.73
2019-04-25T08:32:09.182Z,27.03
2019-04-25T08:33:09.151Z,27.05
2019-04-25T08:34:09.176Z,27.21
2019-04-25T08:35:09.166Z,27.36
2019-04-25T08:36:13.729Z,27.48
2019-04-25T08:37:24.082Z,27.12
2019-04-25T08:38:10.206Z,26.84
2019-04-25T08:39:09.458Z,26.48
2019-04-25T08:40:08.947Z,25.96
2019-04-25T08:41:09.065Z,25.4
2019-04-25T08:42:09.198Z,24.91
2019-04-25T08:43:09.506Z,24.33
2019-04-25T08:44:09.217Z,23.95
2019-04-25T08:45:09.274Z,23.76
2019-04-25T08:46:09.300Z,23.47
2019-04-25T08:47:09.512Z,23.27
2019-04-25T08:48:09.513Z,23.1
2019-04-25T08:49:10.984Z,22.98
2019-04-25T08:50:09.261Z,22.94
2019-04-25T08:51:09.340Z,22.96
2019-04-25T08:52:09.015Z,22.84
2019-04-25T08:53:09.296Z,22.84
2019-04-25T08:54:09.287Z,22.78
2019-04-25T08:55:09.532Z,22.72
2019-04-25T08:56:09.389Z,22.76
2019-04-25T08:57:09.030Z,22.78
2019-04-25T08:58:09.306Z,22.76
2019-04-25T08:59:14.174Z,22.75
2019-04-25T09:00:10.950Z,22.6
2019-04-25T09:01:09.614Z,22.7
2019-04-25T09:02:09.341Z,22.69
2019-04-25T09:03:10.786Z,22.63
2019-04-25T09:04:09.773Z,22.7
2019-04-25T09:05:09.319Z,22.66
2019-04-25T09:06:09.636Z,22.54
2019-04-25T09:07:10.105Z,22.65
2019-04-25T09:08:09.324Z,22.63
2019-04-25T09:09:11.682Z,22.63
2019-04-25T09:10:09.331Z,22.54
2019-04-25T09:11:09.485Z,22.36
2019-04-25T09:12:09.348Z,22.36
2019-04-25T09:13:09.656Z,22.28
2019-04-25T09:14:09.345Z,22.29
2019-04-25T09:15:09.598Z,22.35
2019-04-25T09:16:09.644Z,22.43
2019-04-25T09:17:09.349Z,22.53
2019-04-25T09:18:09.363Z,22.51
2019-04-25T09:19:09.123Z,22.53
2019-04-25T09:20:09.122Z,22.55
2019-04-25T09:21:09.668Z,22.59
2019-04-25T09:22:09.382Z,22.69
2019-04-25T09:23:09.814Z,22.81
2019-04-25T09:24:09.369Z,22.98
2019-04-25T09:25:09.380Z,22.98
2019-04-25T09:26:10.490Z,23.06
2019-04-25T09:27:09.626Z,23.17
2019-04-25T09:28:09.632Z,23.18
2019-04-25T09:29:23.453Z,23.2
2019-04-25T09:30:10.324Z,23.18
2019-04-25T09:31:09.637Z,23.15
2019-04-25T09:32:09.643Z,23.21
2019-04-25T09:33:09.657Z,23.37
2019-04-25T09:34:09.402Z,23.27
2019-04-25T09:35:09.151Z,23.23
2019-04-25T09:36:11.722Z,23.2
2019-04-25T09:37:09.167Z,23.23
2019-04-25T09:38:09.650Z,23.37
2019-04-25T09:39:09.655Z,23.47
2019-04-25T09:40:09.662Z,23.48
2019-04-25T09:41:10.029Z,23.4
2019-04-25T09:42:09.413Z,23.43
2019-04-25T09:43:09.459Z,23.55
2019-04-25T09:44:09.448Z,23.62
2019-04-25T09:45:09.425Z,23.62
2019-04-25T09:46:09.423Z,23.61
2019-04-25T09:47:09.186Z,23.54
2019-04-25T09:48:09.444Z,23.61
2019-04-25T09:49:09.196Z,23.59
2019-04-25T09:50:09.710Z,23.66
2019-04-25T09:51:10.236Z,23.78
2019-04-25T09:52:09.443Z,23.74
2019-04-25T09:53:20.990Z,23.74
2019-04-25T09:54:09.461Z,23.73
2019-04-25T09:55:09.456Z,23.71
2019-04-25T09:56:09.624Z,23.76
2019-04-25T09:57:09.459Z,23.95
2019-04-25T09:58:09.475Z,23.91
2019-04-25T09:59:09.516Z,24.02
2019-04-25T10:00:09.795Z,24.03
2019-04-25T10:01:10.373Z,24.01
2019-04-25T10:02:09.254Z,23.93
2019-04-25T10:03:09.483Z,23.95
2019-04-25T10:04:09.496Z,23.93
2019-04-25T10:05:09.777Z,24.03
2019-04-25T10:06:09.505Z,24.16
2019-04-25T10:07:09.737Z,24.17
2019-04-25T10:08:09.749Z,24.21
2019-04-25T10:09:09.857Z,24.18
2019-04-25T10:10:09.764Z,24.17
2019-04-25T10:11:09.805Z,24.16
2019-04-25T10:12:09.308Z,24.2
2019-04-25T10:13:11.137Z,24.2
2019-04-25T10:14:09.317Z,24.3
2019-04-25T10:15:09.540Z,24.28
2019-04-25T10:16:09.581Z,24.35
2019-04-25T10:17:09.787Z,24.45
2019-04-25T10:18:09.610Z,24.36
2019-04-25T10:19:09.550Z,24.35
2019-04-25T10:20:09.550Z,24.32
2019-04-25T10:21:09.583Z,24.47
2019-04-25T10:22:09.544Z,24.45
2019-04-25T10:23:09.605Z,24.36
2019-04-25T10:24:09.545Z,24.45
2019-04-25T10:25:09.317Z,24.53
2019-04-25T10:26:09.599Z,24.58
2019-04-25T10:27:09.816Z,24.61
2019-04-25T10:28:09.804Z,24.53
2019-04-25T10:29:09.803Z,24.58
2019-04-25T10:30:26.166Z,24.53
2019-04-25T10:31:09.858Z,24.61
2019-04-25T10:32:09.630Z,24.54
2019-04-25T10:33:09.319Z,24.5
2019-04-25T10:34:09.843Z,24.5
2019-04-25T10:35:09.324Z,24.51
2019-04-25T10:36:09.628Z,24.6
2019-04-25T10:37:09.592Z,24.58
2019-04-25T10:38:09.834Z,24.55
2019-04-25T10:39:17.210Z,24.63
2019-04-25T10:40:09.591Z,24.76
2019-04-25T10:41:10.037Z,24.68
2019-04-25T10:42:09.596Z,24.84
2019-04-25T10:43:09.619Z,24.85
2019-04-25T10:44:09.648Z,24.78
2019-04-25T10:45:24.035Z,24.84
2019-04-25T10:46:10.052Z,24.8
2019-04-25T10:47:09.627Z,24.84
2019-04-25T10:48:09.633Z,24.84
2019-04-25T10:49:09.872Z,24.8
2019-04-25T10:50:09.865Z,24.84
2019-04-25T10:51:09.865Z,24.84
2019-04-25T10:52:09.889Z,24.85
2019-04-25T10:53:09.885Z,24.91
2019-04-25T10:54:09.636Z,24.92
2019-04-25T10:55:09.638Z,24.93
2019-04-25T10:56:10.812Z,24.95
2019-04-25T10:57:11.413Z,24.99
2019-04-25T10:58:09.637Z,25.06
2019-04-25T10:59:09.902Z,25.04
2019-04-25T11:00:13.877Z,25.07
2019-04-25T11:01:09.945Z,25.21
2019-04-25T11:02:09.655Z,25.21
2019-04-25T11:03:09.908Z,25.23
2019-04-25T11:04:09.483Z,25.28
2019-04-25T11:05:09.684Z,25.33
2019-04-25T11:06:09.744Z,25.43
2019-04-25T11:07:09.704Z,25.5
2019-04-25T11:08:09.930Z,25.48
2019-04-25T11:09:09.764Z,25.47
2019-04-25T11:10:09.434Z,25.31
2019-04-25T11:11:09.517Z,25.28
2019-04-25T11:12:10.018Z,25.26
2019-04-25T11:13:09.695Z,25.32
2019-04-25T11:14:13.485Z,25.43
2019-04-25T11:15:09.702Z,25.47
2019-04-25T11:16:10.043Z,25.58
2019-04-25T11:17:09.946Z,25.65
2019-04-25T11:18:09.748Z,25.65
2019-04-25T11:19:09.732Z,25.77
2019-04-25T11:20:10.375Z,25.73
2019-04-25T11:21:10.915Z,25.88
2019-04-25T11:22:09.729Z,25.9
2019-04-25T11:23:09.752Z,25.91
2019-04-25T11:24:10.001Z,25.95
2019-04-25T11:25:10.018Z,25.95
2019-04-25T11:26:10.243Z,25.95
2019-04-25T11:27:09.747Z,25.96
2019-04-25T11:28:10.012Z,26.1
2019-04-25T11:29:09.755Z,26.06
2019-04-25T11:30:16.363Z,26.09
2019-04-25T11:31:10.101Z,26.16
2019-04-25T11:32:10.004Z,26.19
2019-04-25T11:33:10.008Z,26.23
2019-04-25T11:34:10.838Z,26.34
2019-04-25T11:35:10.026Z,26.33
2019-04-25T11:36:10.148Z,26.4
2019-04-25T11:37:10.706Z,26.4
2019-04-25T11:38:10.591Z,26.34
2019-04-25T11:39:09.789Z,26.4
2019-04-25T11:40:10.042Z,26.4
2019-04-25T11:41:10.193Z,26.4
2019-04-25T11:42:10.051Z,26.52
2019-04-25T11:43:09.814Z,26.44
2019-04-25T11:44:10.078Z,26.41
2019-04-25T11:45:10.807Z,26.43
2019-04-25T11:46:09.878Z,26.36
2019-04-25T11:47:14.301Z,26.38
2019-04-25T11:48:09.916Z,26.37
2019-04-25T11:49:09.826Z,26.22
2019-04-25T11:50:09.829Z,26.22
2019-04-25T11:51:10.140Z,26.37
2019-04-25T11:52:10.140Z,26.38
2019-04-25T11:53:10.088Z,26.36
2019-04-25T11:54:10.114Z,26.4
2019-04-25T11:55:10.104Z,26.4
2019-04-25T11:56:09.969Z,26.51
2019-04-25T11:57:09.852Z,26.52
2019-04-25T11:58:10.109Z,26.59
2019-04-25T11:59:09.888Z,26.55
2019-04-25T12:00:21.450Z,26.63
2019-04-25T12:01:09.935Z,26.56
2019-04-25T12:02:10.126Z,26.58
2019-04-25T12:03:10.126Z,26.55
2019-04-25T12:04:10.163Z,26.51
2019-04-25T12:05:09.888Z,26.62
2019-04-25T12:06:11.271Z,26.71
2019-04-25T12:07:14.307Z,26.73
2019-04-25T12:08:10.145Z,26.88
2019-04-25T12:09:10.180Z,26.88
2019-04-25T12:10:09.905Z,26.83
2019-04-25T12:11:10.862Z,26.89
2019-04-25T12:12:10.361Z,26.96
2019-04-25T12:13:10.176Z,26.99
2019-04-25T12:14:09.951Z,26.99
2019-04-25T12:15:09.928Z,27.07
2019-04-25T12:16:10.242Z,27.1
2019-04-25T12:17:09.934Z,27.15
2019-04-25T12:18:10.017Z,27.05
2019-04-25T12:19:09.692Z,27.03
2019-04-25T12:20:09.955Z,26.85
2019-04-25T12:21:09.818Z,26.84
2019-04-25T12:22:09.969Z,26.75
2019-04-25T12:23:16.621Z,26.71
2019-04-25T12:24:10.373Z,26.75
2019-04-25T12:25:09.971Z,26.71
2019-04-25T12:26:10.084Z,26.73
2019-04-25T12:27:10.248Z,26.77
2019-04-25T12:28:10.536Z,26.81
2019-04-25T12:29:10.262Z,26.84
2019-04-25T12:30:10.404Z,26.97
2019-04-25T12:31:09.794Z,26.96
2019-04-25T12:32:10.249Z,27.1
2019-04-25T12:33:24.050Z,27.11
2019-04-25T12:34:09.787Z,27.12
2019-04-25T12:35:11.043Z,26.99
2019-04-25T12:36:10.065Z,27
2019-04-25T12:37:10.037Z,27.03
2019-04-25T12:38:10.417Z,26.96
2019-04-25T12:39:10.327Z,26.83
2019-04-25T12:40:10.680Z,26.96
2019-04-25T12:41:10.105Z,26.95
2019-04-25T12:42:10.046Z,26.92
2019-04-25T12:43:10.100Z,27.11
2019-04-25T12:44:11.049Z,27.15
2019-04-25T12:45:10.072Z,27.22
2019-04-25T12:46:10.215Z,27.3
2019-04-25T12:47:10.091Z,27.3
2019-04-25T12:48:10.117Z,27.27
2019-04-25T12:49:10.318Z,27.21
2019-04-25T12:50:10.170Z,27.27
2019-04-25T12:51:10.150Z,27.22
2019-04-25T12:52:10.104Z,27.22
2019-04-25T12:53:10.435Z,27.2
2019-04-25T12:54:11.419Z,27.21
2019-04-25T12:55:10.206Z,27.2
2019-04-25T12:56:09.962Z,27.14